createdAt,value
2023-03-13T00:01:54.613Z,100841.97
2023-03-13T00:04:26.000Z,100840.66
2023-03-13T00:06:56.626Z,100832.47
2023-03-13T00:09:28.783Z,100844.50
2023-03-13T00:12:00.116Z,100838.88
2023-03-13T00:14:31.062Z,100831.91
2023-03-13T00:17:04.623Z,100832.63
2023-03-13T00:19:36.191Z,100822.81
2023-03-13T00:22:07.655Z,100829.91
2023-03-13T00:24:39.447Z,100830.25
2023-03-13T00:27:11.142Z,100829.22
2023-03-13T00:29:43.041Z,100833.91
2023-03-13T00:32:14.364Z,100831.69
2023-03-13T00:34:45.445Z,100817.59
2023-03-13T00:37:19.788Z,100822.03
2023-03-13T00:39:51.537Z,100819.97
2023-03-13T00:42:25.135Z,100821.00
2023-03-13T00:44:59.136Z,100814.94
2023-03-13T00:47:30.086Z,100816.53
2023-03-13T00:50:01.805Z,100817.63
2023-03-13T00:52:33.804Z,100815.41
2023-03-13T00:55:05.924Z,100821.63
2023-03-13T00:57:39.164Z,100811.19
2023-03-13T01:00:11.738Z,100815.34
2023-03-13T01:02:46.260Z,100817.19
2023-03-13T01:05:18.095Z,100818.16
2023-03-13T01:07:49.496Z,100826.53
2023-03-13T01:10:20.899Z,100815.81
2023-03-13T01:12:52.234Z,100815.53
2023-03-13T01:15:23.717Z,100820.34
2023-03-13T01:17:55.205Z,100822.50
2023-03-13T01:20:27.023Z,100813.44
2023-03-13T01:22:57.735Z,100800.91
2023-03-13T01:25:29.083Z,100789.72
2023-03-13T01:28:00.303Z,100797.50
2023-03-13T01:30:32.048Z,100785.97
2023-03-13T01:33:04.979Z,100794.53
2023-03-13T01:35:36.374Z,100785.69
2023-03-13T01:38:07.995Z,100781.19
2023-03-13T01:40:48.416Z,100783.59
2023-03-13T01:43:29.083Z,100791.50
2023-03-13T01:46:05.787Z,100778.19
2023-03-13T01:49:13.990Z,100763.41
2023-03-13T01:52:19.124Z,100778.47
2023-03-13T01:54:59.763Z,100774.75
2023-03-13T01:57:34.633Z,100773.47
2023-03-13T02:00:14.197Z,100764.72
2023-03-13T02:02:49.767Z,100747.78
2023-03-13T02:05:23.459Z,100762.81
2023-03-13T02:08:01.819Z,100748.72
2023-03-13T02:10:34.444Z,100751.63
2023-03-13T02:13:05.762Z,100750.00
2023-03-13T02:15:37.791Z,100761.16
2023-03-13T02:18:09.262Z,100745.97
2023-03-13T02:20:41.874Z,100744.88
2023-03-13T02:23:24.944Z,100743.81
2023-03-13T02:25:57.332Z,100733.81
2023-03-13T02:28:40.825Z,100736.97
2023-03-13T02:31:16.510Z,100738.41
2023-03-13T02:33:47.934Z,100720.41
2023-03-13T02:36:22.193Z,100700.69
2023-03-13T02:39:01.349Z,100702.25
2023-03-13T02:41:35.024Z,100708.16
2023-03-13T02:44:08.505Z,100713.69
2023-03-13T02:46:56.193Z,100695.84
2023-03-13T02:49:32.075Z,100686.31
2023-03-13T02:52:14.036Z,100682.00
2023-03-13T02:54:50.163Z,100681.97
2023-03-13T02:57:21.451Z,100668.63
2023-03-13T02:59:53.074Z,100676.00
2023-03-13T03:02:24.945Z,100680.22
2023-03-13T03:04:57.858Z,100675.09
2023-03-13T03:07:29.324Z,100685.53
2023-03-13T03:10:00.918Z,100668.91
2023-03-13T03:12:33.957Z,100652.94
2023-03-13T03:15:09.140Z,100662.09
2023-03-13T03:17:42.507Z,100656.25
2023-03-13T03:20:13.713Z,100645.63
2023-03-13T03:22:47.073Z,100647.06
2023-03-13T03:25:18.835Z,100650.78
2023-03-13T03:27:51.346Z,100646.13
2023-03-13T03:30:22.705Z,100671.72
2023-03-13T03:32:55.945Z,100645.47
2023-03-13T03:35:27.664Z,100644.00
2023-03-13T03:37:59.290Z,100658.06
2023-03-13T03:40:31.877Z,100656.31
2023-03-13T03:43:03.179Z,100655.09
2023-03-13T03:45:35.659Z,100671.31
2023-03-13T03:48:07.252Z,100705.81
2023-03-13T03:50:38.397Z,100757.28
2023-03-13T03:53:09.861Z,100744.88
2023-03-13T03:55:41.147Z,100731.94
2023-03-13T03:58:12.790Z,100713.22
2023-03-13T04:01:04.087Z,100719.09
2023-03-13T04:03:35.279Z,100721.00
2023-03-13T04:06:08.667Z,100714.41
2023-03-13T04:08:39.903Z,100713.34
2023-03-13T04:11:12.993Z,100715.38
2023-03-13T04:13:48.381Z,100712.44
2023-03-13T04:16:19.691Z,100709.50
2023-03-13T04:18:51.936Z,100711.22
2023-03-13T04:21:23.678Z,100716.00
2023-03-13T04:24:00.819Z,100729.41
2023-03-13T04:26:31.925Z,100712.41
2023-03-13T04:29:03.886Z,100718.66
2023-03-13T04:32:04.459Z,100716.41
2023-03-13T04:35:01.991Z,100713.53
2023-03-13T04:37:48.878Z,100708.03
2023-03-13T04:40:40.308Z,100721.41
2023-03-13T04:43:26.564Z,100717.44
2023-03-13T04:46:10.829Z,100726.47
2023-03-13T04:49:09.552Z,100731.72
2023-03-13T04:51:47.324Z,100735.50
2023-03-13T04:54:38.923Z,100739.03
2023-03-13T04:57:33.470Z,100738.63
2023-03-13T05:00:24.806Z,100743.88
2023-03-13T05:03:15.873Z,100746.09
2023-03-13T05:06:11.807Z,100753.63
2023-03-13T05:08:59.717Z,100763.72
2023-03-13T05:11:52.190Z,100772.50
2023-03-13T05:14:55.774Z,100773.38
2023-03-13T05:17:44.639Z,100767.19
2023-03-13T05:20:32.056Z,100762.91
2023-03-13T05:23:21.255Z,100770.19
2023-03-13T05:26:03.310Z,100768.28
2023-03-13T05:28:45.631Z,100770.13
2023-03-13T05:31:43.001Z,100765.03
2023-03-13T05:34:20.828Z,100765.94
2023-03-13T05:37:17.808Z,100782.84
2023-03-13T05:39:48.929Z,100777.69
2023-03-13T05:42:30.984Z,100774.19
2023-03-13T05:45:07.564Z,100770.66
2023-03-13T05:47:58.161Z,100769.63
2023-03-13T05:51:02.535Z,100780.84
2023-03-13T05:53:51.843Z,100798.19
2023-03-13T05:56:50.151Z,100819.00
2023-03-13T05:59:50.271Z,100825.63
2023-03-13T06:02:39.814Z,100818.41
2023-03-13T06:05:13.866Z,100828.84
2023-03-13T06:07:44.494Z,100828.22
2023-03-13T06:10:25.767Z,100834.53
2023-03-13T06:13:10.709Z,100842.91
2023-03-13T06:16:01.217Z,100846.13
2023-03-13T06:18:42.949Z,100843.47
2023-03-13T06:21:14.644Z,100853.53
2023-03-13T06:23:45.740Z,100863.06
2023-03-13T06:26:16.902Z,100878.84
2023-03-13T06:28:47.993Z,100871.47
2023-03-13T06:31:19.628Z,100867.22
2023-03-13T06:33:51.246Z,100884.69
2023-03-13T06:36:23.088Z,100889.63
2023-03-13T06:38:54.511Z,100875.47
2023-03-13T06:41:26.140Z,100880.75
2023-03-13T06:43:56.872Z,100885.94
2023-03-13T06:46:28.210Z,100880.53
2023-03-13T06:49:02.254Z,100878.28
2023-03-13T06:51:33.512Z,100887.00
2023-03-13T06:54:05.746Z,100885.78
2023-03-13T06:56:37.042Z,100888.72
2023-03-13T06:59:07.981Z,100896.94
2023-03-13T07:01:39.526Z,100903.00
2023-03-13T07:04:16.523Z,100908.44
2023-03-13T07:06:48.305Z,100905.69
2023-03-13T07:09:21.583Z,100909.00
2023-03-13T07:11:53.010Z,100916.34
2023-03-13T07:14:24.385Z,100928.94
2023-03-13T07:16:55.931Z,100920.72
2023-03-13T07:19:28.005Z,100940.00
2023-03-13T07:21:59.261Z,100931.03
2023-03-13T07:24:30.619Z,100931.28
2023-03-13T07:27:07.203Z,100933.56
2023-03-13T07:29:39.240Z,100951.00
2023-03-13T07:32:10.684Z,100940.69
2023-03-13T07:34:42.171Z,100947.22
2023-03-13T07:37:17.539Z,100951.63
2023-03-13T07:39:48.651Z,100959.81
2023-03-13T07:42:20.167Z,100953.59
2023-03-13T07:44:51.652Z,100955.50
2023-03-13T07:47:23.197Z,100957.72
2023-03-13T07:49:55.466Z,100974.34
2023-03-13T07:52:29.491Z,100974.06
2023-03-13T07:55:00.900Z,100961.03
2023-03-13T07:57:33.866Z,100982.00
2023-03-13T08:00:05.602Z,100973.56
2023-03-13T08:02:42.846Z,100986.13
2023-03-13T08:05:14.540Z,100989.38
2023-03-13T08:07:47.591Z,100989.38
2023-03-13T08:10:19.061Z,100990.97
2023-03-13T08:12:50.364Z,100988.81
2023-03-13T08:15:27.113Z,100997.00
2023-03-13T08:17:59.782Z,100998.09
2023-03-13T08:20:31.053Z,101003.25
2023-03-13T08:23:02.792Z,101008.44
2023-03-13T08:25:33.802Z,101019.31
2023-03-13T08:28:05.219Z,101016.06
2023-03-13T08:30:36.911Z,101022.03
2023-03-13T08:33:08.817Z,101024.78
2023-03-13T08:35:39.754Z,101037.56
2023-03-13T08:38:10.830Z,101037.84
2023-03-13T08:40:41.865Z,101050.34
2023-03-13T08:43:13.350Z,101050.34
2023-03-13T08:45:45.074Z,101057.69
2023-03-13T08:48:16.322Z,101068.25
2023-03-13T08:50:47.908Z,101072.84
2023-03-13T08:53:19.369Z,101075.25
2023-03-13T08:55:55.615Z,101075.38
2023-03-13T08:58:26.982Z,101075.34
2023-03-13T09:01:13.618Z,101075.63
2023-03-13T09:03:45.192Z,101078.56
2023-03-13T09:06:16.562Z,101097.03
2023-03-13T09:08:47.342Z,101094.03
2023-03-13T09:11:21.280Z,101095.94
2023-03-13T09:13:53.566Z,101092.06
2023-03-13T09:16:26.268Z,101106.63
2023-03-13T09:18:59.444Z,101103.19
2023-03-13T09:21:33.787Z,101106.66
2023-03-13T09:24:05.291Z,101110.19
2023-03-13T09:26:36.202Z,101121.84
2023-03-13T09:29:07.993Z,101129.91
2023-03-13T09:31:39.981Z,101134.91
2023-03-13T09:34:11.534Z,101136.91
2023-03-13T09:36:43.139Z,101123.97
2023-03-13T09:39:14.626Z,101120.69
2023-03-13T09:42:07.717Z,101123.06
2023-03-13T09:44:54.974Z,101120.13
2023-03-13T09:47:32.416Z,101120.41
2023-03-13T09:50:20.600Z,101130.81
2023-03-13T09:52:57.912Z,101125.38
2023-03-13T09:55:35.384Z,101137.31
2023-03-13T09:58:12.913Z,101137.28
2023-03-13T10:00:54.686Z,101137.03
2023-03-13T10:03:25.321Z,101131.31
2023-03-13T10:06:21.212Z,101135.06
2023-03-13T10:08:54.387Z,101144.53
2023-03-13T10:11:34.992Z,101145.31
2023-03-13T10:14:23.146Z,101151.25
2023-03-13T10:17:02.727Z,101162.00
2023-03-13T10:19:47.436Z,101169.84
2023-03-13T10:22:24.936Z,101166.28
2023-03-13T10:25:11.756Z,101161.34
2023-03-13T10:27:52.572Z,101157.63
2023-03-13T10:30:28.862Z,101160.22
2023-03-13T10:33:24.082Z,101155.38
2023-03-13T10:36:15.205Z,101158.44
2023-03-13T10:38:49.777Z,101170.38
2023-03-13T10:41:29.642Z,101172.13
2023-03-13T10:44:09.724Z,101172.50
2023-03-13T10:46:44.669Z,101174.63
2023-03-13T10:49:21.355Z,101177.84
2023-03-13T10:51:55.514Z,101181.13
2023-03-13T10:54:32.935Z,101180.34
2023-03-13T10:57:27.781Z,101180.00
2023-03-13T11:00:01.181Z,101184.09
2023-03-13T11:02:40.133Z,101185.22
2023-03-13T11:05:33.174Z,101189.22
2023-03-13T11:08:15.391Z,101187.44
2023-03-13T11:11:01.565Z,101203.75
2023-03-13T11:13:43.521Z,101202.94
2023-03-13T11:16:29.171Z,101209.50
2023-03-13T11:19:16.170Z,101206.41
2023-03-13T11:22:09.088Z,101207.44
2023-03-13T11:24:55.690Z,101209.22
2023-03-13T11:27:38.922Z,101204.59
2023-03-13T11:30:40.587Z,101207.66
2023-03-13T11:33:40.683Z,101214.91
2023-03-13T11:36:18.025Z,101212.31
2023-03-13T11:39:05.202Z,101209.84
2023-03-13T11:42:03.058Z,101198.44
2023-03-13T11:44:47.279Z,101181.66
2023-03-13T11:47:33.787Z,101188.00
2023-03-13T11:50:31.461Z,101191.88
2023-03-13T11:53:21.540Z,101195.31
2023-03-13T11:56:14.656Z,101207.06
2023-03-13T11:59:17.075Z,101200.09
2023-03-13T12:02:17.517Z,101204.28
2023-03-13T12:04:57.066Z,101213.28
2023-03-13T12:07:34.552Z,101214.47
2023-03-13T12:10:18.779Z,101208.44
2023-03-13T12:12:55.167Z,101220.47
2023-03-13T12:15:36.903Z,101220.81
2023-03-13T12:18:35.226Z,101218.19
2023-03-13T12:21:16.011Z,101221.59
2023-03-13T12:23:57.876Z,101214.31
2023-03-13T12:26:37.408Z,101234.91
2023-03-13T12:29:19.677Z,101232.66
2023-03-13T12:32:05.623Z,101238.09
2023-03-13T12:35:05.365Z,101239.06
2023-03-13T12:38:07.473Z,101240.31
2023-03-13T12:40:48.979Z,101245.31
2023-03-13T12:43:27.925Z,101250.88
2023-03-13T12:46:02.518Z,101258.13
2023-03-13T12:49:01.791Z,101260.72
2023-03-13T12:51:51.148Z,101266.38
2023-03-13T12:54:54.638Z,101280.31
2023-03-13T12:58:01.428Z,101288.00
2023-03-13T13:00:35.686Z,101298.53
2023-03-13T13:03:10.348Z,101302.53
2023-03-13T13:05:41.763Z,101297.75
2023-03-13T13:08:27.474Z,101298.59
2023-03-13T13:11:38.822Z,101309.31
2023-03-13T13:14:19.602Z,101303.00
2023-03-13T13:17:01.777Z,101312.03
2023-03-13T13:19:45.036Z,101307.22
2023-03-13T13:22:40.262Z,101306.19
2023-03-13T13:25:20.393Z,101304.31
2023-03-13T13:27:52.402Z,101310.63
2023-03-13T13:30:25.138Z,101307.56
2023-03-13T13:32:57.899Z,101310.63
2023-03-13T13:35:35.965Z,101314.13
2023-03-13T13:38:22.309Z,101317.41
2023-03-13T13:41:11.702Z,101322.94
2023-03-13T13:43:47.851Z,101325.03
2023-03-13T13:46:35.681Z,101332.56
2023-03-13T13:49:10.048Z,101333.84
2023-03-13T13:51:42.365Z,101325.97
2023-03-13T13:54:47.019Z,101323.41
2023-03-13T13:57:26.667Z,101332.44
2023-03-13T14:00:19.474Z,101336.69
2023-03-13T14:02:55.580Z,101332.59
2023-03-13T14:05:36.153Z,101332.91
2023-03-13T14:08:20.000Z,101341.81
2023-03-13T14:11:35.830Z,101348.09
2023-03-13T14:14:16.671Z,101347.66
2023-03-13T14:16:53.847Z,101338.94
2023-03-13T14:19:36.546Z,101340.28
2023-03-13T14:22:10.240Z,101341.47
2023-03-13T14:24:41.527Z,101343.97
2023-03-13T14:27:20.308Z,101333.59
2023-03-13T14:30:08.514Z,101339.22
2023-03-13T14:32:40.516Z,101347.78
2023-03-13T14:35:13.761Z,101350.56
2023-03-13T14:37:47.066Z,101344.22
2023-03-13T14:40:22.663Z,101342.47
2023-03-13T14:42:56.511Z,101341.09
2023-03-13T14:45:36.501Z,101337.94
2023-03-13T14:48:39.087Z,101348.38
2023-03-13T14:51:20.025Z,101341.19
2023-03-13T14:53:59.240Z,101344.88
2023-03-13T14:56:36.027Z,101352.19
2023-03-13T14:59:25.822Z,101346.38
2023-03-13T15:02:20.237Z,101359.13
2023-03-13T15:05:06.450Z,101362.75
2023-03-13T15:07:52.877Z,101367.28
2023-03-13T15:10:38.172Z,101371.75
2023-03-13T15:13:29.991Z,101375.97
2023-03-13T15:16:01.561Z,101387.13
2023-03-13T15:18:36.392Z,101391.44
2023-03-13T15:21:18.416Z,101392.47
2023-03-13T15:24:17.967Z,101388.88
2023-03-13T15:26:49.461Z,101390.63
2023-03-13T15:29:21.718Z,101383.66
2023-03-13T15:31:52.786Z,101389.75
2023-03-13T15:34:26.775Z,101388.41
2023-03-13T15:36:58.202Z,101388.09
2023-03-13T15:39:29.747Z,101383.31
2023-03-13T15:42:01.255Z,101383.16
2023-03-13T15:44:32.603Z,101379.78
2023-03-13T15:47:04.046Z,101388.44
2023-03-13T15:49:35.165Z,101384.63
2023-03-13T15:52:07.900Z,101371.00
2023-03-13T15:54:38.934Z,101376.09
2023-03-13T15:57:13.063Z,101372.44
2023-03-13T15:59:45.702Z,101384.63
2023-03-13T16:02:24.939Z,101386.63
2023-03-13T16:04:57.610Z,101395.44
2023-03-13T16:07:29.301Z,101406.47
2023-03-13T16:10:00.694Z,101414.44
2023-03-13T16:12:33.234Z,101418.91
2023-03-13T16:15:06.143Z,101427.06
2023-03-13T16:17:37.466Z,101432.59
2023-03-13T16:20:20.053Z,101436.41
2023-03-13T16:22:53.539Z,101457.66
2023-03-13T16:25:25.939Z,101468.69
2023-03-13T16:27:58.026Z,101458.44
2023-03-13T16:30:32.084Z,101452.94
2023-03-13T16:33:03.161Z,101468.91
2023-03-13T16:35:34.500Z,101467.41
2023-03-13T16:38:06.408Z,101473.75
2023-03-13T16:40:38.592Z,101485.19
2023-03-13T16:43:09.300Z,101480.31
2023-03-13T16:45:40.567Z,101482.28
2023-03-13T16:48:18.879Z,101486.03
2023-03-13T16:50:50.454Z,101483.22
2023-03-13T16:53:21.816Z,101498.44
2023-03-13T16:55:53.107Z,101498.66
2023-03-13T16:58:24.334Z,101498.72
2023-03-13T17:01:05.065Z,101502.63
2023-03-13T17:03:37.078Z,101508.31
2023-03-13T17:06:08.885Z,101512.31
2023-03-13T17:08:41.020Z,101517.03
2023-03-13T17:11:17.980Z,101518.63
2023-03-13T17:13:51.753Z,101525.75
2023-03-13T17:16:31.119Z,101533.59
2023-03-13T17:19:03.295Z,101530.00
2023-03-13T17:21:34.740Z,101532.41
2023-03-13T17:24:06.456Z,101532.41
2023-03-13T17:26:41.995Z,101540.41
2023-03-13T17:29:18.535Z,101536.72
2023-03-13T17:31:50.285Z,101543.97
2023-03-13T17:34:22.047Z,101558.28
2023-03-13T17:36:53.293Z,101564.03
2023-03-13T17:39:26.303Z,101565.97
2023-03-13T17:41:59.261Z,101573.00
2023-03-13T17:44:30.526Z,101569.72
2023-03-13T17:47:02.228Z,101573.44
2023-03-13T17:49:33.432Z,101583.78
2023-03-13T17:52:04.596Z,101603.25
2023-03-13T17:54:35.682Z,101599.56
2023-03-13T17:57:19.904Z,101614.47
2023-03-13T17:59:51.424Z,101625.22
2023-03-13T18:02:23.733Z,101618.66
2023-03-13T18:04:57.713Z,101610.25
2023-03-13T18:07:30.528Z,101619.84
2023-03-13T18:10:01.896Z,101628.38
2023-03-13T18:12:33.537Z,101642.72
2023-03-13T18:15:04.899Z,101649.16
2023-03-13T18:17:36.126Z,101658.47
2023-03-13T18:20:12.185Z,101660.66
2023-03-13T18:22:44.013Z,101672.28
2023-03-13T18:25:16.112Z,101678.41
2023-03-13T18:27:47.358Z,101687.72
2023-03-13T18:30:21.688Z,101698.69
2023-03-13T18:32:53.248Z,101699.06
2023-03-13T18:35:24.437Z,101693.69
2023-03-13T18:37:55.931Z,101709.84
2023-03-13T18:40:29.990Z,101706.09
2023-03-13T18:43:01.862Z,101709.41
2023-03-13T18:45:33.482Z,101716.06
2023-03-13T18:48:04.843Z,101723.47
2023-03-13T18:50:37.244Z,101728.44
2023-03-13T18:53:08.794Z,101737.44
2023-03-13T18:55:40.290Z,101735.50
2023-03-13T18:58:14.676Z,101745.16
2023-03-13T19:00:46.157Z,101748.88
2023-03-13T19:03:21.789Z,101759.69
2023-03-13T19:05:54.968Z,101770.31
2023-03-13T19:08:26.155Z,101763.25
2023-03-13T19:10:57.443Z,101772.66
2023-03-13T19:13:28.627Z,101783.63
2023-03-13T19:15:59.955Z,101789.03
2023-03-13T19:18:31.089Z,101791.53
2023-03-13T19:21:02.260Z,101786.09
2023-03-13T19:23:34.702Z,101793.59
2023-03-13T19:26:06.026Z,101797.13
2023-03-13T19:28:37.244Z,101791.25
2023-03-13T19:31:08.683Z,101806.78
2023-03-13T19:33:40.117Z,101812.44
2023-03-13T19:36:19.059Z,101807.72
2023-03-13T19:38:50.673Z,101808.72
2023-03-13T19:41:21.558Z,101801.59
2023-03-13T19:43:53.026Z,101795.28
2023-03-13T19:46:29.775Z,101795.38
2023-03-13T19:49:02.711Z,101800.38
2023-03-13T19:51:34.324Z,101795.66
2023-03-13T19:54:06.032Z,101810.75
2023-03-13T19:56:38.064Z,101802.53
2023-03-13T19:59:17.758Z,101800.75
2023-03-13T20:01:49.438Z,101796.81
2023-03-13T20:04:20.991Z,101802.47
2023-03-13T20:06:52.983Z,101809.66
2023-03-13T20:09:27.726Z,101813.31
2023-03-13T20:11:59.001Z,101818.59
2023-03-13T20:14:30.397Z,101818.91
2023-03-13T20:17:02.063Z,101826.22
2023-03-13T20:19:33.314Z,101829.00
2023-03-13T20:22:06.553Z,101828.97
2023-03-13T20:24:37.991Z,101836.91
2023-03-13T20:27:09.200Z,101834.28
2023-03-13T20:29:40.383Z,101837.81
2023-03-13T20:32:12.849Z,101833.06
2023-03-13T20:34:43.060Z,101843.78
2023-03-13T20:37:14.471Z,101835.47
2023-03-13T20:39:45.895Z,101841.78
2023-03-13T20:42:18.053Z,101839.69
2023-03-13T20:44:49.173Z,101835.28
2023-03-13T20:47:20.946Z,101838.69
2023-03-13T20:49:52.543Z,101841.97
2023-03-13T20:52:23.892Z,101851.78
2023-03-13T20:54:55.574Z,101855.81
2023-03-13T20:57:27.304Z,101848.75
2023-03-13T20:59:58.116Z,101857.41
2023-03-13T21:02:29.526Z,101853.72
2023-03-13T21:05:00.689Z,101859.94
2023-03-13T21:07:33.880Z,101869.41
2023-03-13T21:10:05.673Z,101864.88
2023-03-13T21:12:37.933Z,101859.03
2023-03-13T21:15:11.404Z,101858.66
2023-03-13T21:17:43.111Z,101859.66
2023-03-13T21:20:14.810Z,101864.00
2023-03-13T21:22:45.728Z,101865.09
2023-03-13T21:25:17.818Z,101863.47
2023-03-13T21:27:49.363Z,101865.41
2023-03-13T21:30:22.640Z,101862.41
2023-03-13T21:32:55.773Z,101874.41
2023-03-13T21:35:27.269Z,101875.28
2023-03-13T21:37:57.853Z,101876.44
2023-03-13T21:40:30.235Z,101878.97
2023-03-13T21:43:01.321Z,101873.00
2023-03-13T21:45:32.542Z,101880.88
2023-03-13T21:48:04.498Z,101865.16
2023-03-13T21:50:35.069Z,101870.59
2023-03-13T21:53:06.211Z,101865.41
2023-03-13T21:55:39.816Z,101874.88
2023-03-13T21:58:10.990Z,101878.03
2023-03-13T22:00:42.467Z,101879.63
2023-03-13T22:03:13.769Z,101879.47
2023-03-13T22:05:47.940Z,101879.03
2023-03-13T22:08:19.440Z,101872.22
2023-03-13T22:10:56.478Z,101874.28
2023-03-13T22:13:27.564Z,101873.75
2023-03-13T22:15:58.902Z,101871.78
2023-03-13T22:18:29.766Z,101865.59
2023-03-13T22:21:04.454Z,101871.13
2023-03-13T22:23:35.643Z,101878.56
2023-03-13T22:26:06.661Z,101880.69
2023-03-13T22:28:38.192Z,101873.13
2023-03-13T22:31:10.244Z,101874.00
2023-03-13T22:33:41.705Z,101877.59
2023-03-13T22:36:13.757Z,101879.66
2023-03-13T22:38:44.980Z,101868.56
2023-03-13T22:41:16.484Z,101883.00
2023-03-13T22:43:47.642Z,101886.00
2023-03-13T22:46:18.890Z,101882.03
2023-03-13T22:48:50.266Z,101878.44
2023-03-13T22:51:21.537Z,101879.09
2023-03-13T22:53:52.955Z,101869.13
2023-03-13T22:56:26.504Z,101872.34
2023-03-13T22:58:59.088Z,101880.16
2023-03-13T23:01:29.889Z,101876.56
2023-03-13T23:04:01.497Z,101879.25
2023-03-13T23:06:32.727Z,101878.41
2023-03-13T23:09:04.978Z,101876.63
2023-03-13T23:11:37.083Z,101871.19
2023-03-13T23:14:08.515Z,101864.50
2023-03-13T23:16:39.143Z,101871.44
2023-03-13T23:19:10.401Z,101869.41
2023-03-13T23:21:41.619Z,101880.38
2023-03-13T23:24:12.378Z,101872.09
2023-03-13T23:26:43.668Z,101868.25
2023-03-13T23:29:15.709Z,101874.53
2023-03-13T23:31:47.915Z,101865.34
2023-03-13T23:34:23.379Z,101870.72
2023-03-13T23:36:56.578Z,101857.84
2023-03-13T23:39:28.004Z,101856.59
2023-03-13T23:42:00.240Z,101861.13
2023-03-13T23:44:34.503Z,101860.34
2023-03-13T23:47:06.371Z,101862.59
2023-03-13T23:49:37.388Z,101862.66
2023-03-13T23:52:10.427Z,101857.78
2023-03-13T23:54:41.624Z,101858.69
2023-03-13T23:57:12.387Z,101860.31
2023-03-13T23:59:43.608Z,101867.91
